sensor_id;sensor_type;location;lat;lon;timestamp;pressure;altitude;pressure_sealevel;temperature
64394;BMP280;50712;49.506;10.400;2022-07-23T00:00:28;98036.09;;;28.86
64394;BMP280;50712;49.506;10.400;2022-07-23T00:00:58;98040.22;;;28.85
64394;BMP280;50712;49.506;10.400;2022-07-23T00:01:29;98044.38;;;28.84
64394;BMP280;50712;49.506;10.400;2022-07-23T00:01:59;98042.28;;;28.84
64394;BMP280;50712;49.506;10.400;2022-07-23T00:02:30;98045.09;;;28.84
64394;BMP280;50712;49.506;10.400;2022-07-23T00:03:00;98051.28;;;28.83
64394;BMP280;50712;49.506;10.400;2022-07-23T00:03:30;98049.97;;;28.84
64394;BMP280;50712;49.506;10.400;2022-07-23T00:04:01;98044.16;;;28.82
64394;BMP280;50712;49.506;10.400;2022-07-23T00:04:32;98040.63;;;28.81
64394;BMP280;50712;49.506;10.400;2022-07-23T00:05:03;98047.56;;;28.80
64394;BMP280;50712;49.506;10.400;2022-07-23T00:05:33;98041.22;;;28.80
64394;BMP280;50712;49.506;10.400;2022-07-23T00:06:04;98044.03;;;28.80
64394;BMP280;50712;49.506;10.400;2022-07-23T00:06:35;98039.00;;;28.78
64394;BMP280;50712;49.506;10.400;2022-07-23T00:07:05;98045.31;;;28.79
64394;BMP280;50712;49.506;10.400;2022-07-23T00:07:36;98039.00;;;28.78
64394;BMP280;50712;49.506;10.400;2022-07-23T00:08:07;98036.75;;;28.77
64394;BMP280;50712;49.506;10.400;2022-07-23T00:08:39;98040.31;;;28.77
64394;BMP280;50712;49.506;10.400;2022-07-23T00:09:10;98044.41;;;28.76
64394;BMP280;50712;49.506;10.400;2022-07-23T00:09:40;98038.81;;;28.76
64394;BMP280;50712;49.506;10.400;2022-07-23T00:10:10;98038.09;;;28.76
64394;BMP280;50712;49.506;10.400;2022-07-23T00:10:41;98034.34;;;28.73
64394;BMP280;50712;49.506;10.400;2022-07-23T00:11:11;98041.47;;;28.74
64394;BMP280;50712;49.506;10.400;2022-07-23T00:11:42;98037.91;;;28.74
64394;BMP280;50712;49.506;10.400;2022-07-23T00:12:12;98038.50;;;28.72
64394;BMP280;50712;49.506;10.400;2022-07-23T00:12:43;98035.69;;;28.72
64394;BMP280;50712;49.506;10.400;2022-07-23T00:13:13;98034.94;;;28.72
64394;BMP280;50712;49.506;10.400;2022-07-23T00:13:44;98036.25;;;28.71
64394;BMP280;50712;49.506;10.400;2022-07-23T00:14:14;98029.19;;;28.70
64394;BMP280;50712;49.506;10.400;2022-07-23T00:14:44;98030.47;;;28.69
64394;BMP280;50712;49.506;10.400;2022-07-23T00:15:15;98028.44;;;28.69
64394;BMP280;50712;49.506;10.400;2022-07-23T00:15:45;98029.72;;;28.68
64394;BMP280;50712;49.506;10.400;2022-07-23T00:16:16;98035.34;;;28.68
64394;BMP280;50712;49.506;10.400;2022-07-23T00:16:46;98029.72;;;28.68
64394;BMP280;50712;49.506;10.400;2022-07-23T00:17:16;98025.44;;;28.67
64394;BMP280;50712;49.506;10.400;2022-07-23T00:17:47;98024.72;;;28.67
64394;BMP280;50712;49.506;10.400;2022-07-23T00:18:17;98023.97;;;28.66
64394;BMP280;50712;49.506;10.400;2022-07-23T00:18:48;98028.06;;;28.65
64394;BMP280;50712;49.506;10.400;2022-07-23T00:19:18;98020.25;;;28.64
64394;BMP280;50712;49.506;10.400;2022-07-23T00:19:48;98024.38;;;28.63
64394;BMP280;50712;49.506;10.400;2022-07-23T00:20:19;98028.47;;;28.62
64394;BMP280;50712;49.506;10.400;2022-07-23T00:20:50;98021.41;;;28.61
64394;BMP280;50712;49.506;10.400;2022-07-23T00:21:21;98019.91;;;28.60
64394;BMP280;50712;49.506;10.400;2022-07-23T00:21:51;98019.16;;;28.59
64394;BMP280;50712;49.506;10.400;2022-07-23T00:22:21;98015.59;;;28.59
64394;BMP280;50712;49.506;10.400;2022-07-23T00:22:53;98017.69;;;28.58
64394;BMP280;50712;49.506;10.400;2022-07-23T00:23:24;98014.16;;;28.58
64394;BMP280;50712;49.506;10.400;2022-07-23T00:23:57;98015.47;;;28.57
64394;BMP280;50712;49.506;10.400;2022-07-23T00:24:27;98015.47;;;28.57
64394;BMP280;50712;49.506;10.400;2022-07-23T00:24:58;98012.66;;;28.57
64394;BMP280;50712;49.506;10.400;2022-07-23T00:25:28;98008.19;;;28.54
64394;BMP280;50712;49.506;10.400;2022-07-23T00:25:58;98010.25;;;28.53
64394;BMP280;50712;49.506;10.400;2022-07-23T00:26:29;98019.25;;;28.52
64394;BMP280;50712;49.506;10.400;2022-07-23T00:26:59;98007.28;;;28.51
64394;BMP280;50712;49.506;10.400;2022-07-23T00:27:30;98007.28;;;28.51
64394;BMP280;50712;49.506;10.400;2022-07-23T00:28:01;98014.19;;;28.50
64394;BMP280;50712;49.506;10.400;2022-07-23T00:28:33;98013.44;;;28.50
64394;BMP280;50712;49.506;10.400;2022-07-23T00:29:03;98007.09;;;28.49
64394;BMP280;50712;49.506;10.400;2022-07-23T00:29:34;98012.69;;;28.49
64394;BMP280;50712;49.506;10.400;2022-07-23T00:30:04;98013.44;;;28.50
64394;BMP280;50712;49.506;10.400;2022-07-23T00:30:35;98005.66;;;28.48
64394;BMP280;50712;49.506;10.400;2022-07-23T00:31:06;98007.69;;;28.48
64394;BMP280;50712;49.506;10.400;2022-07-23T00:31:36;98009.75;;;28.47
64394;BMP280;50712;49.506;10.400;2022-07-23T00:32:06;98004.91;;;28.48
64394;BMP280;50712;49.506;10.400;2022-07-23T00:32:47;98000.59;;;28.47
64394;BMP280;50712;49.506;10.400;2022-07-23T00:33:19;98008.28;;;28.46
64394;BMP280;50712;49.506;10.400;2022-07-23T00:33:49;98003.25;;;28.45
64394;BMP280;50712;49.506;10.400;2022-07-23T00:34:20;98001.94;;;28.46
64394;BMP280;50712;49.506;10.400;2022-07-23T00:34:50;98004.53;;;28.44
64394;BMP280;50712;49.506;10.400;2022-07-23T00:35:21;98004.53;;;28.44
64394;BMP280;50712;49.506;10.400;2022-07-23T00:35:52;98003.78;;;28.43
64394;BMP280;50712;49.506;10.400;2022-07-23T00:36:22;98007.94;;;28.42
64394;BMP280;50712;49.506;10.400;2022-07-23T00:36:53;98004.97;;;28.40
64394;BMP280;50712;49.506;10.400;2022-07-23T00:37:24;98002.16;;;28.40
64394;BMP280;50712;49.506;10.400;2022-07-23T00:37:55;98002.16;;;28.40
64394;BMP280;50712;49.506;10.400;2022-07-23T00:38:26;98001.41;;;28.40
64394;BMP280;50712;49.506;10.400;2022-07-23T00:38:57;97997.13;;;28.39
64394;BMP280;50712;49.506;10.400;2022-07-23T00:39:27;98001.22;;;28.38
64394;BMP280;50712;49.506;10.400;2022-07-23T00:39:58;97999.19;;;28.38
64394;BMP280;50712;49.506;10.400;2022-07-23T00:40:28;98004.03;;;28.38
64394;BMP280;50712;49.506;10.400;2022-07-23T00:40:59;98000.50;;;28.37
64394;BMP280;50712;49.506;10.400;2022-07-23T00:41:30;98000.50;;;28.37
64394;BMP280;50712;49.506;10.400;2022-07-23T00:42:00;97999.03;;;28.36
64394;BMP280;50712;49.506;10.400;2022-07-23T00:42:31;97999.75;;;28.37
64394;BMP280;50712;49.506;10.400;2022-07-23T00:43:02;97989.13;;;28.35
64394;BMP280;50712;49.506;10.400;2022-07-23T00:43:33;97998.09;;;28.34
64394;BMP280;50712;49.506;10.400;2022-07-23T00:44:25;97998.84;;;28.34
64394;BMP280;50712;49.506;10.400;2022-07-23T00:44:57;97994.56;;;28.33
64394;BMP280;50712;49.506;10.400;2022-07-23T00:45:28;97995.88;;;28.32
64394;BMP280;50712;49.506;10.400;2022-07-23T00:45:59;97998.69;;;28.32
64394;BMP280;50712;49.506;10.400;2022-07-23T00:46:30;97992.91;;;28.30
64394;BMP280;50712;49.506;10.400;2022-07-23T00:47:00;98005.63;;;28.31
64394;BMP280;50712;49.506;10.400;2022-07-23T00:47:31;97998.50;;;28.30
64394;BMP280;50712;49.506;10.400;2022-07-23T00:48:02;97997.03;;;28.29
64394;BMP280;50712;49.506;10.400;2022-07-23T00:48:33;97998.34;;;28.28
64394;BMP280;50712;49.506;10.400;2022-07-23T00:49:03;97998.34;;;28.28
64394;BMP280;50712;49.506;10.400;2022-07-23T00:49:33;97989.19;;;28.28
64394;BMP280;50712;49.506;10.400;2022-07-23T00:50:04;97985.63;;;28.27
64394;BMP280;50712;49.506;10.400;2022-07-23T00:50:36;97987.72;;;28.27
64394;BMP280;50712;49.506;10.400;2022-07-23T00:51:07;97984.16;;;28.26
64394;BMP280;50712;49.506;10.400;2022-07-23T00:51:37;97986.22;;;28.26
64394;BMP280;50712;49.506;10.400;2022-07-23T00:52:07;97985.50;;;28.25
64394;BMP280;50712;49.506;10.400;2022-07-23T00:52:39;97988.28;;;28.25
64394;BMP280;50712;49.506;10.400;2022-07-23T00:53:10;97983.25;;;28.24
64394;BMP280;50712;49.506;10.400;2022-07-23T00:53:41;97985.31;;;28.23
64394;BMP280;50712;49.506;10.400;2022-07-23T00:54:12;97985.31;;;28.23
64394;BMP280;50712;49.506;10.400;2022-07-23T00:54:42;97985.31;;;28.23
64394;BMP280;50712;49.506;10.400;2022-07-23T00:55:13;97983.84;;;28.22
64394;BMP280;50712;49.506;10.400;2022-07-23T00:55:43;97984.38;;;28.21
64394;BMP280;50712;49.506;10.400;2022-07-23T00:56:14;97976.72;;;28.21
64394;BMP280;50712;49.506;10.400;2022-07-23T00:56:45;97978.78;;;28.21
64394;BMP280;50712;49.506;10.400;2022-07-23T00:57:16;97973.78;;;28.19
64394;BMP280;50712;49.506;10.400;2022-07-23T00:57:47;97977.31;;;28.20
64394;BMP280;50712;49.506;10.400;2022-07-23T00:58:18;97981.44;;;28.19
64394;BMP280;50712;49.506;10.400;2022-07-23T00:58:48;97979.19;;;28.17
64394;BMP280;50712;49.506;10.400;2022-07-23T00:59:19;97983.47;;;28.18
64394;BMP280;50712;49.506;10.400;2022-07-23T00:59:50;97982.72;;;28.18
64394;BMP280;50712;49.506;10.400;2022-07-23T01:00:23;97977.72;;;28.16
64394;BMP280;50712;49.506;10.400;2022-07-23T01:00:54;97970.63;;;28.15
64394;BMP280;50712;49.506;10.400;2022-07-23T01:01:24;97972.66;;;28.15
64394;BMP280;50712;49.506;10.400;2022-07-23T01:01:55;97969.13;;;28.14
64394;BMP280;50712;49.506;10.400;2022-07-23T01:02:25;97974.75;;;28.14
64394;BMP280;50712;49.506;10.400;2022-07-23T01:02:56;97971.94;;;28.14
64394;BMP280;50712;49.506;10.400;2022-07-23T01:03:26;97971.19;;;28.14
64394;BMP280;50712;49.506;10.400;2022-07-23T01:03:57;97969.72;;;28.13
64394;BMP280;50712;49.506;10.400;2022-07-23T01:04:27;97968.38;;;28.14
64394;BMP280;50712;49.506;10.400;2022-07-23T01:04:57;97975.31;;;28.13
64394;BMP280;50712;49.506;10.400;2022-07-23T01:05:28;97961.31;;;28.13
64394;BMP280;50712;49.506;10.400;2022-07-23T01:05:58;97966.16;;;28.12
64394;BMP280;50712;49.506;10.400;2022-07-23T01:06:29;97973.81;;;28.12
64394;BMP280;50712;49.506;10.400;2022-07-23T01:07:04;97965.41;;;28.12
64394;BMP280;50712;49.506;10.400;2022-07-23T01:07:34;97961.84;;;28.11
64394;BMP280;50712;49.506;10.400;2022-07-23T01:08:05;97961.84;;;28.11
64394;BMP280;50712;49.506;10.400;2022-07-23T01:08:36;97952.00;;;28.10
64394;BMP280;50712;49.506;10.400;2022-07-23T01:09:07;97961.72;;;28.09
64394;BMP280;50712;49.506;10.400;2022-07-23T01:09:37;97953.16;;;28.07
64394;BMP280;50712;49.506;10.400;2022-07-23T01:10:08;97954.44;;;28.06
64394;BMP280;50712;49.506;10.400;2022-07-23T01:10:59;97956.13;;;28.02
64394;BMP280;50712;49.506;10.400;2022-07-23T01:11:29;97954.69;;;28.01
64394;BMP280;50712;49.506;10.400;2022-07-23T01:12:01;97957.50;;;28.01
64394;BMP280;50712;49.506;10.400;2022-07-23T01:12:33;97952.44;;;27.99
64394;BMP280;50712;49.506;10.400;2022-07-23T01:13:07;97951.00;;;27.98
64394;BMP280;50712;49.506;10.400;2022-07-23T01:13:42;97946.69;;;27.97
64394;BMP280;50712;49.506;10.400;2022-07-23T01:14:15;97944.44;;;27.96
64394;BMP280;50712;49.506;10.400;2022-07-23T01:14:54;97947.97;;;27.96
64394;BMP280;50712;49.506;10.400;2022-07-23T01:15:25;97949.34;;;27.95
64394;BMP280;50712;49.506;10.400;2022-07-23T01:15:56;97944.28;;;27.94
64394;BMP280;50712;49.506;10.400;2022-07-23T01:16:26;97942.38;;;27.96
64394;BMP280;50712;49.506;10.400;2022-07-23T01:16:57;97945.78;;;27.95
64394;BMP280;50712;49.506;10.400;2022-07-23T01:17:27;97951.38;;;27.95
64394;BMP280;50712;49.506;10.400;2022-07-23T01:17:58;97948.59;;;27.95
64394;BMP280;50712;49.506;10.400;2022-07-23T01:18:30;97950.63;;;27.94
64394;BMP280;50712;49.506;10.400;2022-07-23T01:19:00;97954.19;;;27.95
64394;BMP280;50712;49.506;10.400;2022-07-23T01:19:31;97961.09;;;27.94
64394;BMP280;50712;49.506;10.400;2022-07-23T01:20:01;97959.56;;;27.93
64394;BMP280;50712;49.506;10.400;2022-07-23T01:20:33;97955.34;;;27.92
64394;BMP280;50712;49.506;10.400;2022-07-23T01:21:08;97961.66;;;27.92
64394;BMP280;50712;49.506;10.400;2022-07-23T01:21:44;97972.13;;;27.92
64394;BMP280;50712;49.506;10.400;2022-07-23T01:22:18;97966.31;;;27.90
64394;BMP280;50712;49.506;10.400;2022-07-23T01:22:49;97963.53;;;27.90
64394;BMP280;50712;49.506;10.400;2022-07-23T01:23:21;97967.06;;;27.90
64394;BMP280;50712;49.506;10.400;2022-07-23T01:23:56;97973.28;;;27.89
64394;BMP280;50712;49.506;10.400;2022-07-23T01:24:27;97966.94;;;27.88
64394;BMP280;50712;49.506;10.400;2022-07-23T01:25:03;97972.53;;;27.88
64394;BMP280;50712;49.506;10.400;2022-07-23T01:25:34;97964.88;;;27.89
64394;BMP280;50712;49.506;10.400;2022-07-23T01:26:06;97971.78;;;27.88
64394;BMP280;50712;49.506;10.400;2022-07-23T01:26:37;97968.97;;;27.88
64394;BMP280;50712;49.506;10.400;2022-07-23T01:27:08;97962.63;;;27.87
64394;BMP280;50712;49.506;10.400;2022-07-23T01:27:41;97966.19;;;27.88
64394;BMP280;50712;49.506;10.400;2022-07-23T01:28:13;97966.75;;;27.86
64394;BMP280;50712;49.506;10.400;2022-07-23T01:28:44;97964.66;;;27.87
64394;BMP280;50712;49.506;10.400;2022-07-23T01:29:15;97963.22;;;27.86
64394;BMP280;50712;49.506;10.400;2022-07-23T01:29:47;97960.41;;;27.86
64394;BMP280;50712;49.506;10.400;2022-07-23T01:30:22;97963.22;;;27.86
64394;BMP280;50712;49.506;10.400;2022-07-23T01:30:52;97963.94;;;27.86
64394;BMP280;50712;49.506;10.400;2022-07-23T01:31:23;97967.31;;;27.85
64394;BMP280;50712;49.506;10.400;2022-07-23T01:31:54;97968.81;;;27.86
64394;BMP280;50712;49.506;10.400;2022-07-23T01:32:25;97971.63;;;27.86
64394;BMP280;50712;49.506;10.400;2022-07-23T01:32:55;97967.31;;;27.85
64394;BMP280;50712;49.506;10.400;2022-07-23T01:33:26;97968.06;;;27.85
64394;BMP280;50712;49.506;10.400;2022-07-23T01:33:57;97975.72;;;27.85
64394;BMP280;50712;49.506;10.400;2022-07-23T01:34:28;97965.81;;;27.84
64394;BMP280;50712;49.506;10.400;2022-07-23T01:34:58;97959.50;;;27.83
64394;BMP280;50712;49.506;10.400;2022-07-23T01:35:29;97965.09;;;27.83
64394;BMP280;50712;49.506;10.400;2022-07-23T01:36:04;97964.34;;;27.83
64394;BMP280;50712;49.506;10.400;2022-07-23T01:36:35;97965.09;;;27.83
64394;BMP280;50712;49.506;10.400;2022-07-23T01:37:06;97963.63;;;27.82
64394;BMP280;50712;49.506;10.400;2022-07-23T01:37:37;97968.47;;;27.82
64394;BMP280;50712;49.506;10.400;2022-07-23T01:38:08;97966.97;;;27.81
64394;BMP280;50712;49.506;10.400;2022-07-23T01:38:40;97964.16;;;27.81
64394;BMP280;50712;49.506;10.400;2022-07-23T01:39:10;97964.16;;;27.81
64394;BMP280;50712;49.506;10.400;2022-07-23T01:39:41;97968.28;;;27.80
64394;BMP280;50712;49.506;10.400;2022-07-23T01:40:11;97966.81;;;27.79
64394;BMP280;50712;49.506;10.400;2022-07-23T01:40:42;97964.00;;;27.79
64394;BMP280;50712;49.506;10.400;2022-07-23T01:41:14;97968.84;;;27.78
64394;BMP280;50712;49.506;10.400;2022-07-23T01:41:44;97960.44;;;27.78
64394;BMP280;50712;49.506;10.400;2022-07-23T01:42:15;97963.25;;;27.78
64394;BMP280;50712;49.506;10.400;2022-07-23T01:42:46;97968.69;;;27.76
64394;BMP280;50712;49.506;10.400;2022-07-23T01:43:17;97965.91;;;27.76
64394;BMP280;50712;49.506;10.400;2022-07-23T01:43:48;97960.31;;;27.76
64394;BMP280;50712;49.506;10.400;2022-07-23T01:44:18;97959.53;;;27.76
64394;BMP280;50712;49.506;10.400;2022-07-23T01:44:48;97961.59;;;27.75
64394;BMP280;50712;49.506;10.400;2022-07-23T01:45:23;97963.66;;;27.75
64394;BMP280;50712;49.506;10.400;2022-07-23T01:45:55;97966.44;;;27.75
64394;BMP280;50712;49.506;10.400;2022-07-23T01:46:28;97965.69;;;27.74
64394;BMP280;50712;49.506;10.400;2022-07-23T01:46:59;97969.81;;;27.73
64394;BMP280;50712;49.506;10.400;2022-07-23T01:47:29;97967.59;;;27.72
64394;BMP280;50712;49.506;10.400;2022-07-23T01:48:00;97971.72;;;27.71
64394;BMP280;50712;49.506;10.400;2022-07-23T01:48:30;97972.28;;;27.69
64394;BMP280;50712;49.506;10.400;2022-07-23T01:49:22;97967.97;;;27.68
64394;BMP280;50712;49.506;10.400;2022-07-23T01:50:04;97967.25;;;27.68
64394;BMP280;50712;49.506;10.400;2022-07-23T01:50:46;97972.09;;;27.67
64394;BMP280;50712;49.506;10.400;2022-07-23T01:51:25;97969.88;;;27.66
64394;BMP280;50712;49.506;10.400;2022-07-23T01:52:07;97969.13;;;27.65
64394;BMP280;50712;49.506;10.400;2022-07-23T01:52:46;97969.69;;;27.64
64394;BMP280;50712;49.506;10.400;2022-07-23T01:53:16;97971.75;;;27.63
64394;BMP280;50712;49.506;10.400;2022-07-23T01:53:47;97966.75;;;27.62
64394;BMP280;50712;49.506;10.400;2022-07-23T01:54:18;97971.59;;;27.61
64394;BMP280;50712;49.506;10.400;2022-07-23T01:54:48;97973.06;;;27.62
64394;BMP280;50712;49.506;10.400;2022-07-23T01:55:18;97977.19;;;27.61
64394;BMP280;50712;49.506;10.400;2022-07-23T01:55:50;97971.59;;;27.61
64394;BMP280;50712;49.506;10.400;2022-07-23T01:56:22;97968.78;;;27.61
64394;BMP280;50712;49.506;10.400;2022-07-23T01:56:53;97965.97;;;27.61
64394;BMP280;50712;49.506;10.400;2022-07-23T01:57:23;97971.59;;;27.61
64394;BMP280;50712;49.506;10.400;2022-07-23T01:57:54;97976.44;;;27.61
64394;BMP280;50712;49.506;10.400;2022-07-23T01:58:27;97964.50;;;27.60
64394;BMP280;50712;49.506;10.400;2022-07-23T01:58:58;97964.50;;;27.60
64394;BMP280;50712;49.506;10.400;2022-07-23T01:59:28;97965.97;;;27.61
64394;BMP280;50712;49.506;10.400;2022-07-23T01:59:59;97963.75;;;27.60
64394;BMP280;50712;49.506;10.400;2022-07-23T02:00:29;97964.50;;;27.60
64394;BMP280;50712;49.506;10.400;2022-07-23T02:01:00;97964.50;;;27.60
64394;BMP280;50712;49.506;10.400;2022-07-23T02:01:31;97963.75;;;27.60
64394;BMP280;50712;49.506;10.400;2022-07-23T02:02:01;97966.56;;;27.60
64394;BMP280;50712;49.506;10.400;2022-07-23T02:02:34;97968.59;;;27.59
64394;BMP280;50712;49.506;10.400;2022-07-23T02:03:06;97960.19;;;27.59
64394;BMP280;50712;49.506;10.400;2022-07-23T02:03:36;97969.16;;;27.58
64394;BMP280;50712;49.506;10.400;2022-07-23T02:04:07;97963.56;;;27.58
64394;BMP280;50712;49.506;10.400;2022-07-23T02:04:38;97966.38;;;27.58
64394;BMP280;50712;49.506;10.400;2022-07-23T02:05:08;97966.38;;;27.58
64394;BMP280;50712;49.506;10.400;2022-07-23T02:05:39;97960.03;;;27.57
64394;BMP280;50712;49.506;10.400;2022-07-23T02:06:09;97958.72;;;27.58
64394;BMP280;50712;49.506;10.400;2022-07-23T02:06:40;97960.03;;;27.57
64394;BMP280;50712;49.506;10.400;2022-07-23T02:07:10;97959.28;;;27.57
64394;BMP280;50712;49.506;10.400;2022-07-23T02:07:41;97956.50;;;27.57
64394;BMP280;50712;49.506;10.400;2022-07-23T02:08:12;97959.28;;;27.57
64394;BMP280;50712;49.506;10.400;2022-07-23T02:08:42;97960.63;;;27.56
64394;BMP280;50712;49.506;10.400;2022-07-23T02:09:13;97962.09;;;27.57
64394;BMP280;50712;49.506;10.400;2022-07-23T02:09:44;97955.03;;;27.56
64394;BMP280;50712;49.506;10.400;2022-07-23T02:10:16;97959.88;;;27.55
64394;BMP280;50712;49.506;10.400;2022-07-23T02:10:46;97956.31;;;27.55
64394;BMP280;50712;49.506;10.400;2022-07-23T02:11:18;97959.88;;;27.55
64394;BMP280;50712;49.506;10.400;2022-07-23T02:11:48;97956.31;;;27.55
64394;BMP280;50712;49.506;10.400;2022-07-23T02:12:19;97964.72;;;27.55
64394;BMP280;50712;49.506;10.400;2022-07-23T02:12:49;97962.66;;;27.55
64394;BMP280;50712;49.506;10.400;2022-07-23T02:13:20;97959.13;;;27.55
64394;BMP280;50712;49.506;10.400;2022-07-23T02:13:50;97958.34;;;27.54
64394;BMP280;50712;49.506;10.400;2022-07-23T02:14:21;97955.56;;;27.54
64394;BMP280;50712;49.506;10.400;2022-07-23T02:14:51;97949.81;;;27.52
64394;BMP280;50712;49.506;10.400;2022-07-23T02:15:22;97957.63;;;27.54
64394;BMP280;50712;49.506;10.400;2022-07-23T02:15:52;97954.84;;;27.54
64394;BMP280;50712;49.506;10.400;2022-07-23T02:16:23;97954.09;;;27.53
64394;BMP280;50712;49.506;10.400;2022-07-23T02:16:53;97954.09;;;27.53
64394;BMP280;50712;49.506;10.400;2022-07-23T02:17:24;97954.84;;;27.54
64394;BMP280;50712;49.506;10.400;2022-07-23T02:17:55;97957.63;;;27.54
64394;BMP280;50712;49.506;10.400;2022-07-23T02:18:25;97953.34;;;27.53
64394;BMP280;50712;49.506;10.400;2022-07-23T02:18:56;97951.28;;;27.53
64394;BMP280;50712;49.506;10.400;2022-07-23T02:19:27;97949.06;;;27.52
64394;BMP280;50712;49.506;10.400;2022-07-23T02:19:57;97949.06;;;27.52
64394;BMP280;50712;49.506;10.400;2022-07-23T02:20:28;97952.59;;;27.52
64394;BMP280;50712;49.506;10.400;2022-07-23T02:20:58;97955.41;;;27.52
64394;BMP280;50712;49.506;10.400;2022-07-23T02:21:28;97949.81;;;27.52
64394;BMP280;50712;49.506;10.400;2022-07-23T02:21:59;97941.41;;;27.52
64394;BMP280;50712;49.506;10.400;2022-07-23T02:22:29;97943.47;;;27.52
64394;BMP280;50712;49.506;10.400;2022-07-23T02:23:00;97944.22;;;27.52
64394;BMP280;50712;49.506;10.400;2022-07-23T02:23:30;97949.81;;;27.52
64394;BMP280;50712;49.506;10.400;2022-07-23T02:24:01;97937.09;;;27.51
64394;BMP280;50712;49.506;10.400;2022-07-23T02:24:32;97946.25;;;27.52
64394;BMP280;50712;49.506;10.400;2022-07-23T02:25:05;97940.66;;;27.52
64394;BMP280;50712;49.506;10.400;2022-07-23T02:25:37;97939.19;;;27.51
64394;BMP280;50712;49.506;10.400;2022-07-23T02:26:07;97939.19;;;27.51
64394;BMP280;50712;49.506;10.400;2022-07-23T02:26:38;97939.19;;;27.51
64394;BMP280;50712;49.506;10.400;2022-07-23T02:27:09;97941.22;;;27.50
64394;BMP280;50712;49.506;10.400;2022-07-23T02:27:40;97937.69;;;27.50
64394;BMP280;50712;49.506;10.400;2022-07-23T02:28:11;97934.16;;;27.49
64394;BMP280;50712;49.506;10.400;2022-07-23T02:28:41;97941.03;;;27.48
64394;BMP280;50712;49.506;10.400;2022-07-23T02:29:11;97930.59;;;27.49
64394;BMP280;50712;49.506;10.400;2022-07-23T02:29:42;97936.94;;;27.49
64394;BMP280;50712;49.506;10.400;2022-07-23T02:30:12;97931.94;;;27.48
64394;BMP280;50712;49.506;10.400;2022-07-23T02:30:43;97932.66;;;27.48
64394;BMP280;50712;49.506;10.400;2022-07-23T02:31:14;97931.94;;;27.48
64394;BMP280;50712;49.506;10.400;2022-07-23T02:31:44;97920.72;;;27.48
64394;BMP280;50712;49.506;10.400;2022-07-23T02:32:16;97937.53;;;27.48
64394;BMP280;50712;49.506;10.400;2022-07-23T02:32:48;97921.28;;;27.46
64394;BMP280;50712;49.506;10.400;2022-07-23T02:33:18;97929.69;;;27.46
64394;BMP280;50712;49.506;10.400;2022-07-23T02:33:49;97921.28;;;27.46
64394;BMP280;50712;49.506;10.400;2022-07-23T02:34:21;97921.28;;;27.46
64394;BMP280;50712;49.506;10.400;2022-07-23T02:34:51;97916.28;;;27.45
64394;BMP280;50712;49.506;10.400;2022-07-23T02:35:24;97920.53;;;27.46
64394;BMP280;50712;49.506;10.400;2022-07-23T02:35:54;97921.13;;;27.44
64394;BMP280;50712;49.506;10.400;2022-07-23T02:36:25;97921.13;;;27.44
64394;BMP280;50712;49.506;10.400;2022-07-23T02:36:57;97916.09;;;27.43
64394;BMP280;50712;49.506;10.400;2022-07-23T02:37:28;97919.63;;;27.43
64394;BMP280;50712;49.506;10.400;2022-07-23T02:37:58;97920.94;;;27.42
64394;BMP280;50712;49.506;10.400;2022-07-23T02:38:30;97918.13;;;27.42
64394;BMP280;50712;49.506;10.400;2022-07-23T02:39:01;97915.91;;;27.41
64394;BMP280;50712;49.506;10.400;2022-07-23T02:39:35;97915.91;;;27.41
64394;BMP280;50712;49.506;10.400;2022-07-23T02:40:05;97918.72;;;27.41
64394;BMP280;50712;49.506;10.400;2022-07-23T02:40:39;97915.91;;;27.41
64394;BMP280;50712;49.506;10.400;2022-07-23T02:41:11;97913.09;;;27.41
64394;BMP280;50712;49.506;10.400;2022-07-23T02:41:42;97921.50;;;27.41
64394;BMP280;50712;49.506;10.400;2022-07-23T02:42:12;97917.22;;;27.40
64394;BMP280;50712;49.506;10.400;2022-07-23T02:42:44;97917.97;;;27.40
64394;BMP280;50712;49.506;10.400;2022-07-23T02:43:15;97909.59;;;27.40
64394;BMP280;50712;49.506;10.400;2022-07-23T02:43:45;97917.22;;;27.40
64394;BMP280;50712;49.506;10.400;2022-07-23T02:44:17;97917.97;;;27.40
64394;BMP280;50712;49.506;10.400;2022-07-23T02:44:52;97909.59;;;27.40
64394;BMP280;50712;49.506;10.400;2022-07-23T02:45:23;97908.06;;;27.39
64394;BMP280;50712;49.506;10.400;2022-07-23T02:45:54;97913.69;;;27.39
64394;BMP280;50712;49.506;10.400;2022-07-23T02:46:25;97914.44;;;27.40
64394;BMP280;50712;49.506;10.400;2022-07-23T02:46:55;97915.72;;;27.39
64394;BMP280;50712;49.506;10.400;2022-07-23T02:47:26;97910.88;;;27.39
64394;BMP280;50712;49.506;10.400;2022-07-23T02:47:56;97910.13;;;27.39
64394;BMP280;50712;49.506;10.400;2022-07-23T02:48:27;97900.25;;;27.38
64394;BMP280;50712;49.506;10.400;2022-07-23T02:48:57;97909.41;;;27.38
64394;BMP280;50712;49.506;10.400;2022-07-23T02:49:28;97907.94;;;27.37
64394;BMP280;50712;49.506;10.400;2022-07-23T02:50:07;97907.94;;;27.37
64394;BMP280;50712;49.506;10.400;2022-07-23T02:50:38;97914.81;;;27.36
64394;BMP280;50712;49.506;10.400;2022-07-23T02:51:09;97909.97;;;27.37
64394;BMP280;50712;49.506;10.400;2022-07-23T02:51:45;97917.63;;;27.36
64394;BMP280;50712;49.506;10.400;2022-07-23T02:52:16;97916.13;;;27.35
64394;BMP280;50712;49.506;10.400;2022-07-23T02:52:47;97916.13;;;27.35
64394;BMP280;50712;49.506;10.400;2022-07-23T02:53:17;97911.28;;;27.36
64394;BMP280;50712;49.506;10.400;2022-07-23T02:53:48;97915.38;;;27.35
64394;BMP280;50712;49.506;10.400;2022-07-23T02:54:18;97914.63;;;27.34
64394;BMP280;50712;49.506;10.400;2022-07-23T02:54:49;97909.78;;;27.35
64394;BMP280;50712;49.506;10.400;2022-07-23T02:55:20;97910.34;;;27.33
64394;BMP280;50712;49.506;10.400;2022-07-23T02:55:51;97907.56;;;27.33
64394;BMP280;50712;49.506;10.400;2022-07-23T02:56:21;97909.63;;;27.33
64394;BMP280;50712;49.506;10.400;2022-07-23T02:56:51;97909.63;;;27.33
64394;BMP280;50712;49.506;10.400;2022-07-23T02:57:22;97912.41;;;27.33
64394;BMP280;50712;49.506;10.400;2022-07-23T02:57:53;97910.94;;;27.32
64394;BMP280;50712;49.506;10.400;2022-07-23T02:58:23;97915.22;;;27.33